map of WPR home
WPR - Airport
Location
City:  Porvenir, Isla Tierra del Fuego, Magallanes y de la Antártica Chilena, Chile
Name:Capitán Fuentes Martinez Airport
ICAO:SCFM
IATA:WPR

Details
Type:Airport (Aerodrome, Airfield)
Use:Public/Civil
Latitude:53°15'13"S (-53.253610)
Longitude:70°19'09"W (-70.319166)
Elevation:104 ft (32 m)
Variation:12.89°E (WMM2015 magnetic declination)
-0.07° annual change
Runways:2
Longest:8202 × 98 ft (2500 × 30 m), paved

Time
Time Zone:UTC-4 (DST-3)
Local Time:

Weather
METAR:SCFM 151700Z 27020G30KT 9999 BKN040 16/08 Q0977

Related Locations
Nearby:
Farthest:UIAO: 12407 mi / 19967 km
Barguzin, BU, RU

Find:

   beyond  
but within

Other Information
Maps:
NOTAMs:
Links:
Sources:

  
  • flag of Chile
  • flag of Magallanes y de la Antártica Chilena
  

Sectional Chart

Flight Planning
at skyvector.com

Satellite Image

Google Maps Satellite view

 

Copyright © 2004-2018 Karl L. Swartz. All rights reserved.
The Great Circle Mapper name and logo are trademarks of the Great Circle Mapper.
All other trademarks mentioned herein belong to their respective owners.
Please see credits for attibutions and further copyright information.

  Follow gcmap on Facebook Follow gcmap on Twitter Follow gcmap on Google+ GCmap on LinkedIn

hCard Microformat

Geo Microformat